sensor_id;sensor_type;location;lat;lon;timestamp;pressure;altitude;pressure_sealevel;temperature;humidity
46394;BME280;32099;53.588;10.176;2023-03-04T00:01:38;101666.78;;;6.30;76.38
46394;BME280;32099;53.588;10.176;2023-03-04T00:04:04;101666.06;;;6.28;76.43
46394;BME280;32099;53.588;10.176;2023-03-04T00:06:29;101665.22;;;6.27;76.49
46394;BME280;32099;53.588;10.176;2023-03-04T00:08:54;101669.91;;;6.25;76.51
46394;BME280;32099;53.588;10.176;2023-03-04T00:11:20;101666.34;;;6.25;76.45
46394;BME280;32099;53.588;10.176;2023-03-04T00:13:45;101666.94;;;6.28;76.36
46394;BME280;32099;53.588;10.176;2023-03-04T00:16:10;101665.06;;;6.29;76.06
46394;BME280;32099;53.588;10.176;2023-03-04T00:18:36;101652.50;;;6.28;76.23
46394;BME280;32099;53.588;10.176;2023-03-04T00:21:01;101667.78;;;6.29;76.54
46394;BME280;32099;53.588;10.176;2023-03-04T00:23:26;101669.97;;;6.35;76.12
46394;BME280;32099;53.588;10.176;2023-03-04T00:25:51;101661.31;;;6.41;76.18
46394;BME280;32099;53.588;10.176;2023-03-04T00:28:17;101665.72;;;6.42;76.10
46394;BME280;32099;53.588;10.176;2023-03-04T00:30:43;101667.59;;;6.42;75.91
46394;BME280;32099;53.588;10.176;2023-03-04T00:33:08;101662.19;;;6.42;75.78
46394;BME280;32099;53.588;10.176;2023-03-04T00:35:33;101651.34;;;6.42;75.91
46394;BME280;32099;53.588;10.176;2023-03-04T00:37:59;101653.31;;;6.40;75.94
46394;BME280;32099;53.588;10.176;2023-03-04T00:40:24;101646.91;;;6.41;75.99
46394;BME280;32099;53.588;10.176;2023-03-04T00:42:49;101658.47;;;6.43;75.98
46394;BME280;32099;53.588;10.176;2023-03-04T00:45:15;101640.75;;;6.39;75.61
46394;BME280;32099;53.588;10.176;2023-03-04T00:47:40;101654.31;;;6.39;75.77
46394;BME280;32099;53.588;10.176;2023-03-04T00:50:05;101642.47;;;6.40;75.66
46394;BME280;32099;53.588;10.176;2023-03-04T00:52:31;101636.19;;;6.39;75.59
46394;BME280;32099;53.588;10.176;2023-03-04T00:54:56;101637.66;;;6.43;75.52
46394;BME280;32099;53.588;10.176;2023-03-04T00:57:21;101643.66;;;6.47;75.36
46394;BME280;32099;53.588;10.176;2023-03-04T00:59:47;101630.84;;;6.49;75.60
46394;BME280;32099;53.588;10.176;2023-03-04T01:02:12;101627.28;;;6.48;75.33
46394;BME280;32099;53.588;10.176;2023-03-04T01:04:37;101621.84;;;6.48;75.05
46394;BME280;32099;53.588;10.176;2023-03-04T01:07:03;101618.84;;;6.52;75.42
46394;BME280;32099;53.588;10.176;2023-03-04T01:09:29;101612.34;;;6.54;75.07
46394;BME280;32099;53.588;10.176;2023-03-04T01:11:54;101615.88;;;6.55;75.19
46394;BME280;32099;53.588;10.176;2023-03-04T01:14:20;101622.28;;;6.54;75.00
46394;BME280;32099;53.588;10.176;2023-03-04T01:16:46;101617.03;;;6.52;74.89
46394;BME280;32099;53.588;10.176;2023-03-04T01:19:11;101612.59;;;6.51;74.93
46394;BME280;32099;53.588;10.176;2023-03-04T01:21:36;101605.59;;;6.48;74.97
46394;BME280;32099;53.588;10.176;2023-03-04T01:24:01;101607.50;;;6.58;74.64
46394;BME280;32099;53.588;10.176;2023-03-04T01:26:27;101604.78;;;6.58;74.70
46394;BME280;32099;53.588;10.176;2023-03-04T01:28:52;101603.78;;;6.59;74.59
46394;BME280;32099;53.588;10.176;2023-03-04T01:31:18;101600.22;;;6.58;74.51
46394;BME280;32099;53.588;10.176;2023-03-04T01:33:43;101592.06;;;6.58;74.52
46394;BME280;32099;53.588;10.176;2023-03-04T01:36:08;101591.09;;;6.59;74.62
46394;BME280;32099;53.588;10.176;2023-03-04T01:38:33;101593.53;;;6.62;74.47
46394;BME280;32099;53.588;10.176;2023-03-04T01:40:59;101572.84;;;6.61;74.54
46394;BME280;32099;53.588;10.176;2023-03-04T01:43:25;101587.22;;;6.62;74.65
46394;BME280;32099;53.588;10.176;2023-03-04T01:45:52;101580.97;;;6.61;74.51
46394;BME280;32099;53.588;10.176;2023-03-04T01:48:20;101574.81;;;6.59;74.77
46394;BME280;32099;53.588;10.176;2023-03-04T01:50:48;101581.22;;;6.58;74.72
46394;BME280;32099;53.588;10.176;2023-03-04T01:53:16;101569.41;;;6.59;74.81
46394;BME280;32099;53.588;10.176;2023-03-04T01:55:46;101563.00;;;6.60;74.88
46394;BME280;32099;53.588;10.176;2023-03-04T01:58:12;101563.72;;;6.62;74.78
46394;BME280;32099;53.588;10.176;2023-03-04T02:00:38;101557.31;;;6.63;74.72
46394;BME280;32099;53.588;10.176;2023-03-04T02:03:09;101565.44;;;6.63;74.80
46394;BME280;32099;53.588;10.176;2023-03-04T02:05:37;101560.00;;;6.63;74.79
46394;BME280;32099;53.588;10.176;2023-03-04T02:08:05;101552.00;;;6.62;74.73
46394;BME280;32099;53.588;10.176;2023-03-04T02:10:31;101554.59;;;6.63;74.85
46394;BME280;32099;53.588;10.176;2023-03-04T02:12:58;101557.41;;;6.62;74.97
46394;BME280;32099;53.588;10.176;2023-03-04T02:15:24;101538.59;;;6.60;75.02
46394;BME280;32099;53.588;10.176;2023-03-04T02:17:49;101538.75;;;6.59;75.18
46394;BME280;32099;53.588;10.176;2023-03-04T02:23:17;101531.72;;;6.56;75.50
46394;BME280;32099;53.588;10.176;2023-03-04T02:28:50;101532.34;;;6.60;75.36
46394;BME280;32099;53.588;10.176;2023-03-04T02:31:24;101535.63;;;6.63;75.29
46394;BME280;32099;53.588;10.176;2023-03-04T02:34:02;101532.19;;;6.61;75.18
46394;BME280;32099;53.588;10.176;2023-03-04T02:36:35;101533.91;;;6.62;75.28
46394;BME280;32099;53.588;10.176;2023-03-04T02:39:44;101523.06;;;6.62;75.50
46394;BME280;32099;53.588;10.176;2023-03-04T02:41:58;101525.63;;;6.64;75.37
46394;BME280;32099;53.588;10.176;2023-03-04T02:44:31;101517.38;;;6.66;75.37
46394;BME280;32099;53.588;10.176;2023-03-04T02:47:01;101515.94;;;6.61;75.75
46394;BME280;32099;53.588;10.176;2023-03-04T02:49:28;101514.94;;;6.62;75.65
46394;BME280;32099;53.588;10.176;2023-03-04T02:52:00;101506.94;;;6.61;75.91
46394;BME280;32099;53.588;10.176;2023-03-04T02:54:27;101504.25;;;6.61;76.07
46394;BME280;32099;53.588;10.176;2023-03-04T02:56:53;101497.78;;;6.62;75.96
46394;BME280;32099;53.588;10.176;2023-03-04T02:59:20;101504.34;;;6.59;76.31
46394;BME280;32099;53.588;10.176;2023-03-04T03:01:47;101504.34;;;6.59;76.34
46394;BME280;32099;53.588;10.176;2023-03-04T03:04:13;101501.53;;;6.61;76.19
46394;BME280;32099;53.588;10.176;2023-03-04T03:06:38;101500.38;;;6.63;76.19
46394;BME280;32099;53.588;10.176;2023-03-04T03:09:04;101500.38;;;6.63;76.44
46394;BME280;32099;53.588;10.176;2023-03-04T03:11:29;101501.94;;;6.66;76.53
46394;BME280;32099;53.588;10.176;2023-03-04T03:13:55;101500.13;;;6.67;76.26
46394;BME280;32099;53.588;10.176;2023-03-04T03:16:20;101494.69;;;6.67;76.41
46394;BME280;32099;53.588;10.176;2023-03-04T03:18:46;101495.81;;;6.64;76.72
46394;BME280;32099;53.588;10.176;2023-03-04T03:21:11;101485.84;;;6.64;76.73
46394;BME280;32099;53.588;10.176;2023-03-04T03:23:36;101485.97;;;6.63;77.08
46394;BME280;32099;53.588;10.176;2023-03-04T03:26:02;101488.81;;;6.61;76.97
46394;BME280;32099;53.588;10.176;2023-03-04T03:28:27;101483.56;;;6.60;76.53
46394;BME280;32099;53.588;10.176;2023-03-04T03:30:53;101480.97;;;6.58;76.65
46394;BME280;32099;53.588;10.176;2023-03-04T03:33:18;101491.69;;;6.60;76.37
46394;BME280;32099;53.588;10.176;2023-03-04T03:35:43;101487.25;;;6.59;76.68
46394;BME280;32099;53.588;10.176;2023-03-04T03:38:09;101485.13;;;6.62;76.22
46394;BME280;32099;53.588;10.176;2023-03-04T03:40:34;101475.13;;;6.63;76.00
46394;BME280;32099;53.588;10.176;2023-03-04T03:42:59;101474.31;;;6.72;75.82
46394;BME280;32099;53.588;10.176;2023-03-04T03:45:25;101475.00;;;6.74;75.63
46394;BME280;32099;53.588;10.176;2023-03-04T03:47:50;101465.75;;;6.77;75.67
46394;BME280;32099;53.588;10.176;2023-03-04T03:50:15;101466.44;;;6.79;75.61
46394;BME280;32099;53.588;10.176;2023-03-04T03:52:41;101462.63;;;6.82;75.52
46394;BME280;32099;53.588;10.176;2023-03-04T03:55:06;101463.34;;;6.84;75.85
46394;BME280;32099;53.588;10.176;2023-03-04T03:57:32;101472.59;;;6.81;75.79
46394;BME280;32099;53.588;10.176;2023-03-04T03:59:57;101466.31;;;6.81;75.95
46394;BME280;32099;53.588;10.176;2023-03-04T04:02:23;101462.03;;;6.78;76.22
46394;BME280;32099;53.588;10.176;2023-03-04T04:04:48;101459.47;;;6.76;76.05
46394;BME280;32099;53.588;10.176;2023-03-04T04:07:13;101466.75;;;6.76;76.37
46394;BME280;32099;53.588;10.176;2023-03-04T04:09:39;101471.16;;;6.77;76.65
46394;BME280;32099;53.588;10.176;2023-03-04T04:12:05;101458.88;;;6.73;76.96
46394;BME280;32099;53.588;10.176;2023-03-04T04:14:31;101461.16;;;6.68;77.10
46394;BME280;32099;53.588;10.176;2023-03-04T04:16:57;101452.44;;;6.64;76.83
46394;BME280;32099;53.588;10.176;2023-03-04T04:19:22;101464.16;;;6.64;76.88
46394;BME280;32099;53.588;10.176;2023-03-04T04:21:47;101461.28;;;6.66;77.22
46394;BME280;32099;53.588;10.176;2023-03-04T04:24:13;101455.59;;;6.69;76.83
46394;BME280;32099;53.588;10.176;2023-03-04T04:26:38;101458.16;;;6.71;76.53
46394;BME280;32099;53.588;10.176;2023-03-04T04:29:04;101460.03;;;6.70;76.74
46394;BME280;32099;53.588;10.176;2023-03-04T04:31:29;101456.59;;;6.68;76.52
46394;BME280;32099;53.588;10.176;2023-03-04T04:33:55;101456.44;;;6.70;76.79
46394;BME280;32099;53.588;10.176;2023-03-04T04:36:20;101450.31;;;6.68;76.65
46394;BME280;32099;53.588;10.176;2023-03-04T04:38:45;101448.31;;;6.70;76.60
46394;BME280;32099;53.588;10.176;2023-03-04T04:41:16;101446.47;;;6.70;76.49
46394;BME280;32099;53.588;10.176;2023-03-04T04:43:44;101454.63;;;6.70;76.21
46394;BME280;32099;53.588;10.176;2023-03-04T04:46:10;101439.47;;;6.68;76.57
46394;BME280;32099;53.588;10.176;2023-03-04T04:48:35;101440.75;;;6.63;76.03
46394;BME280;32099;53.588;10.176;2023-03-04T04:51:00;101446.31;;;6.62;75.27
46394;BME280;32099;53.588;10.176;2023-03-04T04:53:25;101433.78;;;6.61;75.46
46394;BME280;32099;53.588;10.176;2023-03-04T04:55:51;101441.91;;;6.61;74.84
46394;BME280;32099;53.588;10.176;2023-03-04T04:58:16;101446.44;;;6.60;73.51
46394;BME280;32099;53.588;10.176;2023-03-04T05:00:41;101438.91;;;6.54;72.22
46394;BME280;32099;53.588;10.176;2023-03-04T05:03:06;101443.88;;;6.49;72.27
46394;BME280;32099;53.588;10.176;2023-03-04T05:05:32;101436.00;;;6.46;71.48
46394;BME280;32099;53.588;10.176;2023-03-04T05:07:57;101441.56;;;6.44;71.91
46394;BME280;32099;53.588;10.176;2023-03-04T05:10:23;101432.88;;;6.41;71.25
46394;BME280;32099;53.588;10.176;2023-03-04T05:12:48;101444.28;;;6.44;71.07
46394;BME280;32099;53.588;10.176;2023-03-04T05:15:14;101437.88;;;6.45;69.94
46394;BME280;32099;53.588;10.176;2023-03-04T05:17:39;101427.03;;;6.45;70.04
46394;BME280;32099;53.588;10.176;2023-03-04T05:20:04;101441.31;;;6.47;70.52
46394;BME280;32099;53.588;10.176;2023-03-04T05:22:31;101429.59;;;6.47;70.41
46394;BME280;32099;53.588;10.176;2023-03-04T05:24:56;101437.16;;;6.43;70.05
46394;BME280;32099;53.588;10.176;2023-03-04T05:27:22;101426.31;;;6.43;70.76
46394;BME280;32099;53.588;10.176;2023-03-04T05:29:47;101438.72;;;6.46;71.61
46394;BME280;32099;53.588;10.176;2023-03-04T05:32:12;101441.56;;;6.44;69.72
46394;BME280;32099;53.588;10.176;2023-03-04T05:34:38;101443.72;;;6.51;71.02
46394;BME280;32099;53.588;10.176;2023-03-04T05:37:03;101443.88;;;6.49;70.15
46394;BME280;32099;53.588;10.176;2023-03-04T05:39:28;101444.59;;;6.51;70.57
46394;BME280;32099;53.588;10.176;2023-03-04T05:41:53;101444.75;;;6.50;70.79
46394;BME280;32099;53.588;10.176;2023-03-04T05:44:19;101436.47;;;6.51;70.78
46394;BME280;32099;53.588;10.176;2023-03-04T05:46:44;101438.28;;;6.51;70.71
46394;BME280;32099;53.588;10.176;2023-03-04T05:49:09;101443.59;;;6.52;71.09
46394;BME280;32099;53.588;10.176;2023-03-04T05:51:35;101445.44;;;6.52;71.09
46394;BME280;32099;53.588;10.176;2023-03-04T05:54:00;101447.44;;;6.50;70.32
46394;BME280;32099;53.588;10.176;2023-03-04T05:56:25;101455.56;;;6.50;70.84
46394;BME280;32099;53.588;10.176;2023-03-04T05:58:51;101452.00;;;6.49;70.95
46394;BME280;32099;53.588;10.176;2023-03-04T06:01:16;101453.72;;;6.50;70.52
46394;BME280;32099;53.588;10.176;2023-03-04T06:03:41;101451.25;;;6.47;69.70
46394;BME280;32099;53.588;10.176;2023-03-04T06:06:07;101453.25;;;6.45;69.70
46394;BME280;32099;53.588;10.176;2023-03-04T06:08:32;101452.13;;;6.47;70.02
46394;BME280;32099;53.588;10.176;2023-03-04T06:10:58;101444.84;;;6.48;70.22
46394;BME280;32099;53.588;10.176;2023-03-04T06:13:23;101455.69;;;6.48;69.95
46394;BME280;32099;53.588;10.176;2023-03-04T06:15:52;101450.16;;;6.50;70.23
46394;BME280;32099;53.588;10.176;2023-03-04T06:18:19;101449.28;;;6.49;70.21
46394;BME280;32099;53.588;10.176;2023-03-04T06:20:44;101455.69;;;6.48;69.91
46394;BME280;32099;53.588;10.176;2023-03-04T06:23:10;101449.28;;;6.49;70.45
46394;BME280;32099;53.588;10.176;2023-03-04T06:25:35;101450.72;;;6.53;69.81
46394;BME280;32099;53.588;10.176;2023-03-04T06:28:00;101453.56;;;6.52;69.85
46394;BME280;32099;53.588;10.176;2023-03-04T06:30:26;101457.41;;;6.49;70.47
46394;BME280;32099;53.588;10.176;2023-03-04T06:32:51;101462.09;;;6.47;69.18
46394;BME280;32099;53.588;10.176;2023-03-04T06:35:16;101474.09;;;6.44;68.63
46394;BME280;32099;53.588;10.176;2023-03-04T06:37:42;101470.06;;;6.39;68.10
46394;BME280;32099;53.588;10.176;2023-03-04T06:40:08;101471.06;;;6.38;68.87
46394;BME280;32099;53.588;10.176;2023-03-04T06:42:34;101467.78;;;6.34;68.64
46394;BME280;32099;53.588;10.176;2023-03-04T06:45:00;101464.50;;;6.30;68.97
46394;BME280;32099;53.588;10.176;2023-03-04T06:47:26;101473.63;;;6.29;68.58
46394;BME280;32099;53.588;10.176;2023-03-04T06:49:52;101466.22;;;6.31;68.82
46394;BME280;32099;53.588;10.176;2023-03-04T06:52:17;101478.63;;;6.34;68.87
46394;BME280;32099;53.588;10.176;2023-03-04T06:54:42;101478.47;;;6.36;69.01
46394;BME280;32099;53.588;10.176;2023-03-04T06:57:08;101484.75;;;6.36;68.55
46394;BME280;32099;53.588;10.176;2023-03-04T06:59:33;101487.59;;;6.35;68.15
46394;BME280;32099;53.588;10.176;2023-03-04T07:01:59;101481.75;;;6.29;68.03
46394;BME280;32099;53.588;10.176;2023-03-04T07:04:24;101482.00;;;6.26;67.89
46394;BME280;32099;53.588;10.176;2023-03-04T07:06:49;101480.44;;;6.24;69.23
46394;BME280;32099;53.588;10.176;2023-03-04T07:09:15;101479.44;;;6.25;69.21
46394;BME280;32099;53.588;10.176;2023-03-04T07:11:41;101488.59;;;6.33;69.54
46394;BME280;32099;53.588;10.176;2023-03-04T07:14:06;101496.91;;;6.42;69.45
46394;BME280;32099;53.588;10.176;2023-03-04T07:16:32;101488.63;;;6.43;68.15
46394;BME280;32099;53.588;10.176;2023-03-04T07:18:57;101489.19;;;6.37;68.29
46394;BME280;32099;53.588;10.176;2023-03-04T07:21:23;101489.16;;;6.27;67.97
46394;BME280;32099;53.588;10.176;2023-03-04T07:23:48;101479.44;;;6.25;68.65
46394;BME280;32099;53.588;10.176;2023-03-04T07:26:13;101484.97;;;6.23;68.31
46394;BME280;32099;53.588;10.176;2023-03-04T07:28:39;101488.00;;;6.20;68.35
46394;BME280;32099;53.588;10.176;2023-03-04T07:31:17;101487.53;;;6.15;68.75
46394;BME280;32099;53.588;10.176;2023-03-04T07:33:44;101488.25;;;6.17;68.63
46394;BME280;32099;53.588;10.176;2023-03-04T07:36:09;101482.94;;;6.15;66.22
46394;BME280;32099;53.588;10.176;2023-03-04T07:38:35;101491.22;;;6.14;67.21
46394;BME280;32099;53.588;10.176;2023-03-04T07:41:00;101494.66;;;6.16;66.89
46394;BME280;32099;53.588;10.176;2023-03-04T07:43:28;101487.38;;;6.16;67.16
46394;BME280;32099;53.588;10.176;2023-03-04T07:45:59;101494.25;;;6.21;67.69
46394;BME280;32099;53.588;10.176;2023-03-04T07:48:25;101495.56;;;6.26;66.21
46394;BME280;32099;53.588;10.176;2023-03-04T07:51:01;101498.00;;;6.29;66.98
46394;BME280;32099;53.588;10.176;2023-03-04T07:53:34;101493.72;;;6.27;65.63
46394;BME280;32099;53.588;10.176;2023-03-04T07:56:00;101498.66;;;6.22;66.79
46394;BME280;32099;53.588;10.176;2023-03-04T07:58:26;101507.78;;;6.21;66.88
46394;BME280;32099;53.588;10.176;2023-03-04T08:00:52;101507.63;;;6.22;65.92
46394;BME280;32099;53.588;10.176;2023-03-04T08:03:17;101499.94;;;6.17;65.15
46394;BME280;32099;53.588;10.176;2023-03-04T08:05:42;101513.63;;;6.16;65.03
46394;BME280;32099;53.588;10.176;2023-03-04T08:08:08;101503.63;;;6.16;66.17
46394;BME280;32099;53.588;10.176;2023-03-04T08:10:33;101500.81;;;6.18;65.25
46394;BME280;32099;53.588;10.176;2023-03-04T08:12:58;101505.22;;;6.19;64.76
46394;BME280;32099;53.588;10.176;2023-03-04T08:15:23;101506.06;;;6.20;65.58
46394;BME280;32099;53.588;10.176;2023-03-04T08:17:51;101520.91;;;6.25;65.96
46394;BME280;32099;53.588;10.176;2023-03-04T08:20:16;101507.97;;;6.29;65.11
46394;BME280;32099;53.588;10.176;2023-03-04T08:22:41;101512.38;;;6.30;65.26
46394;BME280;32099;53.588;10.176;2023-03-04T08:25:07;101516.09;;;6.29;65.03
46394;BME280;32099;53.588;10.176;2023-03-04T08:27:32;101516.22;;;6.27;63.98
46394;BME280;32099;53.588;10.176;2023-03-04T08:29:58;101519.09;;;6.26;65.53
46394;BME280;32099;53.588;10.176;2023-03-04T08:32:23;101514.38;;;6.28;65.20
46394;BME280;32099;53.588;10.176;2023-03-04T08:34:48;101517.94;;;6.28;64.63
46394;BME280;32099;53.588;10.176;2023-03-04T08:37:13;101517.06;;;6.28;64.09
46394;BME280;32099;53.588;10.176;2023-03-04T08:39:39;101518.25;;;6.35;65.43
46394;BME280;32099;53.588;10.176;2023-03-04T08:42:04;101526.81;;;6.40;66.03
46394;BME280;32099;53.588;10.176;2023-03-04T08:44:29;101528.53;;;6.41;65.72
46394;BME280;32099;53.588;10.176;2023-03-04T08:46:55;101525.09;;;6.39;64.23
46394;BME280;32099;53.588;10.176;2023-03-04T08:49:20;101530.81;;;6.36;65.00
46394;BME280;32099;53.588;10.176;2023-03-04T08:51:45;101521.25;;;6.32;63.30
46394;BME280;32099;53.588;10.176;2023-03-04T08:54:11;101525.09;;;6.29;63.78
46394;BME280;32099;53.588;10.176;2023-03-04T08:56:36;101525.19;;;6.28;63.68
46394;BME280;32099;53.588;10.176;2023-03-04T08:59:01;101517.81;;;6.30;63.91
46394;BME280;32099;53.588;10.176;2023-03-04T09:01:27;101509.69;;;6.30;64.00
46394;BME280;32099;53.588;10.176;2023-03-04T09:03:52;101521.09;;;6.33;65.52
46394;BME280;32099;53.588;10.176;2023-03-04T09:06:17;101520.09;;;6.35;64.64
46394;BME280;32099;53.588;10.176;2023-03-04T09:08:43;101525.50;;;6.35;64.53
46394;BME280;32099;53.588;10.176;2023-03-04T09:11:09;101522.81;;;6.35;64.17
46394;BME280;32099;53.588;10.176;2023-03-04T09:13:35;101531.66;;;6.37;64.30
46394;BME280;32099;53.588;10.176;2023-03-04T09:16:01;101526.25;;;6.37;64.06
46394;BME280;32099;53.588;10.176;2023-03-04T09:18:27;101528.09;;;6.36;62.98
46394;BME280;32099;53.588;10.176;2023-03-04T09:20:53;101528.97;;;6.37;63.14
46394;BME280;32099;53.588;10.176;2023-03-04T09:23:18;101525.97;;;6.40;62.34
46394;BME280;32099;53.588;10.176;2023-03-04T09:25:44;101534.53;;;6.45;63.00
46394;BME280;32099;53.588;10.176;2023-03-04T09:28:11;101526.16;;;6.48;63.21
46394;BME280;32099;53.588;10.176;2023-03-04T09:30:38;101528.31;;;6.54;62.39
46394;BME280;32099;53.588;10.176;2023-03-04T09:33:03;101527.44;;;6.54;61.10
46394;BME280;32099;53.588;10.176;2023-03-04T09:35:29;101527.59;;;6.52;63.38
46394;BME280;32099;53.588;10.176;2023-03-04T09:37:54;101530.88;;;6.56;63.11
46394;BME280;32099;53.588;10.176;2023-03-04T09:40:25;101530.31;;;6.62;61.82
46394;BME280;32099;53.588;10.176;2023-03-04T09:43:01;101526.19;;;6.68;62.82
46394;BME280;32099;53.588;10.176;2023-03-04T09:45:30;101527.59;;;6.62;62.02
46394;BME280;32099;53.588;10.176;2023-03-04T09:48:00;101534.16;;;6.59;60.92
46394;BME280;32099;53.588;10.176;2023-03-04T09:50:26;101533.03;;;6.62;61.77
46394;BME280;32099;53.588;10.176;2023-03-04T09:53:18;101525.31;;;6.57;60.81
46394;BME280;32099;53.588;10.176;2023-03-04T09:55:49;101533.44;;;6.57;62.15
46394;BME280;32099;53.588;10.176;2023-03-04T10:00:54;101530.47;;;6.60;60.41
46394;BME280;32099;53.588;10.176;2023-03-04T10:03:39;101525.50;;;6.66;62.14
46394;BME280;32099;53.588;10.176;2023-03-04T10:06:10;101530.81;;;6.77;61.67
46394;BME280;32099;53.588;10.176;2023-03-04T10:11:20;101517.13;;;6.88;61.26
46394;BME280;32099;53.588;10.176;2023-03-04T10:13:53;101532.13;;;6.92;60.90
46394;BME280;32099;53.588;10.176;2023-03-04T10:16:25;101523.13;;;6.92;58.66
46394;BME280;32099;53.588;10.176;2023-03-04T10:21:47;101523.97;;;6.92;58.68
46394;BME280;32099;53.588;10.176;2023-03-04T10:24:15;101504.72;;;6.95;58.16
46394;BME280;32099;53.588;10.176;2023-03-04T10:26:47;101499.59;;;7.02;58.74
46394;BME280;32099;53.588;10.176;2023-03-04T10:29:25;101520.47;;;7.21;59.36
46394;BME280;32099;53.588;10.176;2023-03-04T10:31:54;101519.72;;;7.39;59.98
46394;BME280;32099;53.588;10.176;2023-03-04T10:34:20;101528.00;;;7.57;58.08
46394;BME280;32099;53.588;10.176;2023-03-04T10:36:57;101514.72;;;7.64;56.69
46394;BME280;32099;53.588;10.176;2023-03-04T10:39:35;101518.44;;;7.72;58.95
46394;BME280;32099;53.588;10.176;2023-03-04T10:42:04;101522.13;;;7.81;60.14
46394;BME280;32099;53.588;10.176;2023-03-04T10:44:42;101525.09;;;7.88;58.40
46394;BME280;32099;53.588;10.176;2023-03-04T10:47:15;101522.97;;;7.82;57.24
46394;BME280;32099;53.588;10.176;2023-03-04T10:49:49;101533.72;;;7.74;57.61
46394;BME280;32099;53.588;10.176;2023-03-04T10:52:25;101522.41;;;7.68;57.95
46394;BME280;32099;53.588;10.176;2023-03-04T10:54:56;101527.41;;;7.73;58.22
46394;BME280;32099;53.588;10.176;2023-03-04T11:02:41;101534.31;;;7.57;56.62
46394;BME280;32099;53.588;10.176;2023-03-04T11:07:58;101519.75;;;7.59;54.53
46394;BME280;32099;53.588;10.176;2023-03-04T11:13:04;101526.28;;;7.56;57.41
46394;BME280;32099;53.588;10.176;2023-03-04T11:15:52;101527.16;;;7.56;57.74
46394;BME280;32099;53.588;10.176;2023-03-04T11:18:22;101531.72;;;7.66;56.70
46394;BME280;32099;53.588;10.176;2023-03-04T11:20:54;101522.53;;;7.77;57.25
46394;BME280;32099;53.588;10.176;2023-03-04T11:26:04;101517.09;;;7.77;56.56
46394;BME280;32099;53.588;10.176;2023-03-04T11:31:15;101529.69;;;7.78;55.29
46394;BME280;32099;53.588;10.176;2023-03-04T11:33:55;101519.09;;;7.84;57.20
46394;BME280;32099;53.588;10.176;2023-03-04T11:36:34;101521.97;;;7.93;56.48
46394;BME280;32099;53.588;10.176;2023-03-04T11:42:27;101515.78;;;8.00;55.30
46394;BME280;32099;53.588;10.176;2023-03-04T11:45:02;101520.91;;;8.03;52.36
46394;BME280;32099;53.588;10.176;2023-03-04T12:01:42;101492.19;;;8.48;55.88
46394;BME280;32099;53.588;10.176;2023-03-04T12:07:23;101501.78;;;8.33;55.53
46394;BME280;32099;53.588;10.176;2023-03-04T12:13:08;101492.59;;;8.44;55.02
46394;BME280;32099;53.588;10.176;2023-03-04T12:15:57;101493.06;;;8.39;54.27
46394;BME280;32099;53.588;10.176;2023-03-04T12:26:35;101490.47;;;8.38;52.64
46394;BME280;32099;53.588;10.176;2023-03-04T12:29:15;101483.06;;;8.30;54.21
46394;BME280;32099;53.588;10.176;2023-03-04T12:32:14;101482.81;;;8.23;53.87
46394;BME280;32099;53.588;10.176;2023-03-04T12:34:52;101473.66;;;8.24;52.67
46394;BME280;32099;53.588;10.176;2023-03-04T12:37:44;101465.47;;;8.34;54.32
46394;BME280;32099;53.588;10.176;2023-03-04T12:40:44;101472.53;;;8.55;54.36
46394;BME280;32099;53.588;10.176;2023-03-04T12:46:23;101456.22;;;8.55;54.82
46394;BME280;32099;53.588;10.176;2023-03-04T12:48:59;101456.94;;;8.47;51.90
46394;BME280;32099;53.588;10.176;2023-03-04T12:51:59;101460.13;;;8.42;54.29
46394;BME280;32099;53.588;10.176;2023-03-04T12:54:34;101458.97;;;8.45;55.15
46394;BME280;32099;53.588;10.176;2023-03-04T12:59:53;101463.28;;;8.47;53.28
46394;BME280;32099;53.588;10.176;2023-03-04T13:05:41;101465.88;;;8.39;54.27
46394;BME280;32099;53.588;10.176;2023-03-04T13:08:24;101457.31;;;8.34;55.24
46394;BME280;32099;53.588;10.176;2023-03-04T13:17:00;101439.19;;;8.53;53.62
46394;BME280;32099;53.588;10.176;2023-03-04T13:19:48;101444.50;;;8.54;53.96
46394;BME280;32099;53.588;10.176;2023-03-04T13:41:13;101449.41;;;8.51;54.22
46394;BME280;32099;53.588;10.176;2023-03-04T13:43:44;101449.53;;;8.49;54.80
46394;BME280;32099;53.588;10.176;2023-03-04T13:51:26;101444.34;;;8.28;53.82
46394;BME280;32099;53.588;10.176;2023-03-04T13:59:29;101445.03;;;8.02;54.92
46394;BME280;32099;53.588;10.176;2023-03-04T14:02:09;101438.44;;;7.95;55.77
46394;BME280;32099;53.588;10.176;2023-03-04T14:04:35;101449.94;;;7.88;55.51
46394;BME280;32099;53.588;10.176;2023-03-04T14:10:05;101448.94;;;7.80;57.01
46394;BME280;32099;53.588;10.176;2023-03-04T14:12:54;101448.94;;;7.80;55.59
46394;BME280;32099;53.588;10.176;2023-03-04T14:15:23;101445.06;;;7.82;55.24
46394;BME280;32099;53.588;10.176;2023-03-04T14:17:54;101443.22;;;7.83;56.08
46394;BME280;32099;53.588;10.176;2023-03-04T14:26:05;101442.22;;;7.84;57.18
46394;BME280;32099;53.588;10.176;2023-03-04T14:28:50;101439.97;;;7.79;56.70
46394;BME280;32099;53.588;10.176;2023-03-04T14:31:20;101440.97;;;7.78;55.63
46394;BME280;32099;53.588;10.176;2023-03-04T14:33:51;101439.97;;;7.79;56.58
46394;BME280;32099;53.588;10.176;2023-03-04T14:36:23;101437.38;;;7.78;55.23
46394;BME280;32099;53.588;10.176;2023-03-04T14:38:51;101438.81;;;7.72;56.93
46394;BME280;32099;53.588;10.176;2023-03-04T14:46:47;101439.81;;;7.71;56.42
46394;BME280;32099;53.588;10.176;2023-03-04T14:49:15;101429.41;;;7.66;55.66
46394;BME280;32099;53.588;10.176;2023-03-04T14:51:47;101428.28;;;7.59;55.16
46394;BME280;32099;53.588;10.176;2023-03-04T14:54:31;101429.56;;;7.55;56.09
46394;BME280;32099;53.588;10.176;2023-03-04T14:59:51;101434.72;;;7.48;56.20